createdAt,value
2022-10-15T00:02:24.218Z,55.30
2022-10-15T00:04:50.765Z,55.30
2022-10-15T00:07:17.310Z,55.20
2022-10-15T00:09:43.921Z,55.30
2022-10-15T00:12:10.465Z,55.30
2022-10-15T00:14:37.026Z,55.30
2022-10-15T00:17:03.564Z,55.30
2022-10-15T00:19:30.175Z,55.30
2022-10-15T00:21:56.738Z,55.30
2022-10-15T00:24:23.349Z,55.30
2022-10-15T00:26:49.902Z,55.40
2022-10-15T00:29:16.460Z,55.40
2022-10-15T00:31:42.999Z,55.40
2022-10-15T00:34:09.637Z,55.40
2022-10-15T00:36:36.327Z,55.40
2022-10-15T00:39:04.297Z,55.50
2022-10-15T00:41:33.166Z,55.30
2022-10-15T00:44:23.620Z,55.30
2022-10-15T00:46:53.721Z,55.30
2022-10-15T00:49:25.025Z,55.40
2022-10-15T00:52:02.180Z,55.30
2022-10-15T00:54:31.690Z,55.30
2022-10-15T00:56:58.244Z,55.40
2022-10-15T00:59:25.168Z,55.30
2022-10-15T01:01:51.877Z,55.40
2022-10-15T01:04:18.879Z,55.30
2022-10-15T01:06:45.833Z,55.30
2022-10-15T01:09:12.673Z,55.30
2022-10-15T01:11:46.645Z,55.40
2022-10-15T01:14:23.189Z,55.40
2022-10-15T01:16:53.448Z,55.40
2022-10-15T01:19:37.564Z,55.40
2022-10-15T01:22:05.997Z,55.40
2022-10-15T01:24:35.238Z,55.40
2022-10-15T01:27:16.717Z,55.40
2022-10-15T01:30:20.313Z,55.40
2022-10-15T01:33:21.451Z,55.40
2022-10-15T01:35:54.713Z,55.30
2022-10-15T01:38:45.598Z,55.40
2022-10-15T01:41:16.666Z,55.40
2022-10-15T01:43:52.320Z,55.40
2022-10-15T01:46:40.063Z,55.40
2022-10-15T01:49:06.611Z,55.40
2022-10-15T01:51:34.479Z,55.40
2022-10-15T01:54:01.021Z,55.40
2022-10-15T01:56:27.743Z,55.30
2022-10-15T01:58:55.275Z,55.20
2022-10-15T02:01:21.993Z,55.30
2022-10-15T02:03:49.890Z,55.20
2022-10-15T02:06:42.454Z,55.20
2022-10-15T02:09:30.232Z,55.10
2022-10-15T02:12:10.168Z,55.30
2022-10-15T02:14:43.368Z,55.30
2022-10-15T02:17:10.247Z,55.30
2022-10-15T02:19:54.817Z,55.30
2022-10-15T02:22:26.627Z,55.30
2022-10-15T02:24:58.363Z,55.30
2022-10-15T02:27:26.024Z,55.30
2022-10-15T02:29:52.840Z,55.30
2022-10-15T02:32:20.692Z,55.40
2022-10-15T02:34:47.403Z,55.40
2022-10-15T02:37:14.060Z,55.30
2022-10-15T02:39:40.615Z,55.30
2022-10-15T02:42:07.181Z,55.30
2022-10-15T02:44:33.729Z,55.30
2022-10-15T02:47:00.277Z,55.30
2022-10-15T02:49:26.862Z,55.20
2022-10-15T02:51:53.703Z,55.20
2022-10-15T02:54:20.302Z,55.10
2022-10-15T02:56:46.859Z,55.10
2022-10-15T02:59:13.400Z,55.10
2022-10-15T03:01:39.935Z,55.10
2022-10-15T03:04:06.501Z,55.10
2022-10-15T03:06:33.050Z,55.00
2022-10-15T03:08:59.600Z,55.00
2022-10-15T03:11:26.136Z,55.00
2022-10-15T03:13:52.685Z,55.10
2022-10-15T03:16:19.261Z,55.10
2022-10-15T03:18:45.811Z,55.10
2022-10-15T03:21:12.364Z,55.10
2022-10-15T03:23:38.924Z,55.20
2022-10-15T03:26:05.632Z,55.30
2022-10-15T03:28:32.223Z,55.30
2022-10-15T03:30:58.803Z,55.30
2022-10-15T03:33:25.526Z,55.30
2022-10-15T03:35:52.995Z,55.30
2022-10-15T03:38:19.545Z,55.30
2022-10-15T03:40:46.409Z,55.30
2022-10-15T03:43:12.968Z,55.30
2022-10-15T03:45:39.546Z,55.30
2022-10-15T03:48:06.274Z,55.20
2022-10-15T03:50:32.920Z,55.20
2022-10-15T03:52:59.501Z,55.10
2022-10-15T03:55:26.057Z,55.10
2022-10-15T03:57:52.630Z,55.40
2022-10-15T04:00:19.236Z,55.00
2022-10-15T04:02:45.780Z,55.00
2022-10-15T04:05:12.335Z,55.00
2022-10-15T04:07:38.892Z,55.00
2022-10-15T04:10:05.732Z,55.00
2022-10-15T04:12:32.292Z,55.00
2022-10-15T04:14:58.839Z,55.00
2022-10-15T04:17:25.412Z,55.50
2022-10-15T04:19:51.958Z,55.00
2022-10-15T04:22:18.714Z,55.10
2022-10-15T04:24:45.249Z,55.10
2022-10-15T04:27:12.658Z,55.20
2022-10-15T04:29:39.202Z,55.20
2022-10-15T04:32:05.758Z,55.30
2022-10-15T04:34:32.306Z,55.30
2022-10-15T04:36:58.852Z,55.30
2022-10-15T04:39:25.414Z,55.30
2022-10-15T04:41:51.956Z,55.20
2022-10-15T04:44:18.585Z,55.30
2022-10-15T04:46:45.131Z,55.30
2022-10-15T04:49:11.919Z,55.30
2022-10-15T04:51:38.471Z,55.30
2022-10-15T04:54:05.065Z,55.20
2022-10-15T04:56:31.626Z,55.20
2022-10-15T04:58:58.201Z,55.30
2022-10-15T05:01:24.738Z,55.30
2022-10-15T05:03:51.284Z,55.30
2022-10-15T05:06:19.822Z,55.30
2022-10-15T05:08:46.741Z,55.20
2022-10-15T05:11:21.248Z,55.30
2022-10-15T05:13:47.985Z,55.30
2022-10-15T05:16:19.443Z,55.30
2022-10-15T05:18:47.294Z,55.20
2022-10-15T05:21:14.653Z,55.20
2022-10-15T05:23:41.368Z,55.20
2022-10-15T05:26:10.358Z,55.30
2022-10-15T05:28:36.972Z,55.30
2022-10-15T05:31:08.001Z,55.30
2022-10-15T05:33:34.613Z,55.30
2022-10-15T05:36:19.993Z,55.30
2022-10-15T05:38:50.931Z,55.30
2022-10-15T05:41:17.572Z,55.50
2022-10-15T05:43:46.827Z,55.30
2022-10-15T05:46:13.394Z,55.40
2022-10-15T05:48:40.001Z,55.40
2022-10-15T05:51:08.572Z,55.30
2022-10-15T05:53:35.122Z,55.30
2022-10-15T05:56:01.714Z,55.30
2022-10-15T05:58:32.073Z,55.20
2022-10-15T06:01:02.387Z,55.30
2022-10-15T06:03:29.034Z,55.30
2022-10-15T06:05:55.581Z,55.30
2022-10-15T06:08:22.234Z,55.20
2022-10-15T06:10:48.956Z,55.30
2022-10-15T06:13:15.743Z,55.20
2022-10-15T06:15:43.490Z,55.20
2022-10-15T06:18:10.900Z,55.10
2022-10-15T06:20:37.543Z,55.00
2022-10-15T06:23:05.083Z,55.00
2022-10-15T06:25:31.856Z,55.00
2022-10-15T06:28:02.571Z,55.00
2022-10-15T06:30:29.177Z,55.00
2022-10-15T06:32:55.715Z,55.10
2022-10-15T06:35:22.712Z,55.10
2022-10-15T06:37:49.282Z,55.20
2022-10-15T06:40:15.873Z,55.20
2022-10-15T06:42:42.904Z,55.20
2022-10-15T06:45:10.766Z,55.10
2022-10-15T06:47:37.769Z,55.10
2022-10-15T06:50:05.730Z,55.20
2022-10-15T06:52:32.638Z,55.10
2022-10-15T06:54:59.553Z,55.20
2022-10-15T06:57:27.629Z,55.20
2022-10-15T06:59:54.478Z,55.20
2022-10-15T07:02:21.200Z,55.20
2022-10-15T07:04:47.980Z,55.10
2022-10-15T07:07:14.625Z,55.10
2022-10-15T07:09:41.176Z,55.10
2022-10-15T07:12:07.805Z,55.10
2022-10-15T07:14:37.546Z,55.10
2022-10-15T07:17:06.665Z,55.00
2022-10-15T07:19:33.246Z,55.00
2022-10-15T07:22:00.378Z,55.00
2022-10-15T07:24:26.916Z,54.90
2022-10-15T07:26:53.450Z,54.90
2022-10-15T07:29:19.998Z,54.90
2022-10-15T07:31:46.932Z,54.80
2022-10-15T07:34:13.653Z,54.80
2022-10-15T07:36:40.194Z,55.00
2022-10-15T07:39:06.743Z,55.00
2022-10-15T07:41:33.272Z,55.10
2022-10-15T07:43:59.828Z,55.10
2022-10-15T07:46:26.722Z,55.10
2022-10-15T07:48:53.309Z,55.10
2022-10-15T07:51:19.849Z,55.10
2022-10-15T07:53:47.335Z,55.10
2022-10-15T07:56:14.804Z,55.10
2022-10-15T07:58:41.736Z,55.10
2022-10-15T08:01:09.428Z,55.20
2022-10-15T08:03:36.560Z,55.10
2022-10-15T08:06:04.000Z,55.10
2022-10-15T08:08:30.551Z,55.10
2022-10-15T08:10:57.516Z,55.10
2022-10-15T08:13:24.188Z,55.00
2022-10-15T08:15:50.776Z,54.90
2022-10-15T08:18:17.342Z,55.00
2022-10-15T08:20:43.878Z,54.90
2022-10-15T08:23:16.552Z,54.90
2022-10-15T08:25:43.256Z,54.90
2022-10-15T08:28:10.771Z,54.90
2022-10-15T08:30:37.984Z,54.90
2022-10-15T08:33:04.655Z,54.90
2022-10-15T08:35:35.246Z,54.90
2022-10-15T08:38:02.311Z,54.90
2022-10-15T08:40:29.597Z,55.00
2022-10-15T08:42:56.378Z,55.00
2022-10-15T08:45:25.950Z,55.10
2022-10-15T08:48:26.776Z,55.10
2022-10-15T08:51:11.708Z,55.10
2022-10-15T08:53:40.348Z,55.10
2022-10-15T08:56:14.370Z,55.10
2022-10-15T08:58:45.762Z,55.10
2022-10-15T09:01:27.073Z,55.10
2022-10-15T09:04:17.628Z,55.10
2022-10-15T09:06:44.264Z,55.10
2022-10-15T09:09:31.820Z,55.20
2022-10-15T09:12:26.142Z,55.20
2022-10-15T09:14:55.666Z,55.10
2022-10-15T09:17:27.291Z,55.20
2022-10-15T09:19:57.581Z,55.20
2022-10-15T09:22:28.946Z,55.30
2022-10-15T09:24:55.654Z,55.30
2022-10-15T09:27:34.128Z,55.30
2022-10-15T09:30:22.524Z,55.30
2022-10-15T09:33:00.115Z,55.30
2022-10-15T09:35:32.374Z,55.30
2022-10-15T09:38:21.148Z,55.30
2022-10-15T09:41:16.482Z,55.30
2022-10-15T09:43:44.938Z,55.20
2022-10-15T09:46:11.519Z,55.30
2022-10-15T09:49:03.097Z,55.30
2022-10-15T09:51:53.824Z,55.30
2022-10-15T09:54:28.038Z,55.20
2022-10-15T09:56:56.060Z,55.20
2022-10-15T09:59:22.973Z,55.10
2022-10-15T10:02:19.994Z,55.10
2022-10-15T10:04:46.571Z,55.00
2022-10-15T10:07:29.266Z,55.00
2022-10-15T10:09:56.945Z,55.60
2022-10-15T10:12:27.303Z,55.00
2022-10-15T10:15:03.316Z,54.90
2022-10-15T10:17:30.059Z,55.00
2022-10-15T10:20:07.153Z,55.00
2022-10-15T10:23:00.652Z,55.00
2022-10-15T10:25:27.224Z,55.00
2022-10-15T10:27:54.482Z,55.10
2022-10-15T10:30:21.128Z,55.10
2022-10-15T10:32:47.673Z,55.10
2022-10-15T10:35:24.220Z,55.10
2022-10-15T10:37:50.840Z,55.20
2022-10-15T10:40:34.948Z,55.10
2022-10-15T10:43:16.686Z,55.20
2022-10-15T10:46:03.535Z,55.20
2022-10-15T10:48:42.493Z,55.10
2022-10-15T10:51:12.005Z,55.20
2022-10-15T10:53:49.182Z,55.10
2022-10-15T10:56:17.478Z,55.00
2022-10-15T10:58:44.045Z,55.00
2022-10-15T11:01:13.582Z,55.00
2022-10-15T11:03:42.893Z,55.00
2022-10-15T11:06:16.378Z,54.90
2022-10-15T11:08:51.765Z,55.00
2022-10-15T11:11:28.075Z,55.00
2022-10-15T11:14:02.737Z,55.00
2022-10-15T11:16:42.422Z,55.00
2022-10-15T11:20:05.930Z,54.90
2022-10-15T11:23:16.915Z,55.00
2022-10-15T11:26:24.525Z,55.00
2022-10-15T11:29:20.109Z,54.90
2022-10-15T11:32:14.969Z,55.00
2022-10-15T11:34:46.180Z,55.00
2022-10-15T11:37:53.828Z,54.90
2022-10-15T11:40:36.841Z,55.10
2022-10-15T11:43:09.653Z,55.10
2022-10-15T11:45:42.552Z,55.20
2022-10-15T11:48:30.660Z,55.20
2022-10-15T11:51:07.281Z,55.30
2022-10-15T11:54:01.072Z,55.40
2022-10-15T11:56:39.107Z,55.40
2022-10-15T11:59:17.923Z,55.40
2022-10-15T12:01:58.012Z,55.40
2022-10-15T12:04:46.404Z,55.30
2022-10-15T12:07:21.582Z,55.40
2022-10-15T12:09:53.685Z,55.30
2022-10-15T12:12:40.068Z,55.20
2022-10-15T12:15:21.757Z,55.30
2022-10-15T12:18:01.219Z,55.20
2022-10-15T12:20:27.754Z,55.10
2022-10-15T12:22:57.302Z,55.80
2022-10-15T12:25:35.791Z,55.20
2022-10-15T12:28:07.837Z,55.20
2022-10-15T12:30:36.885Z,55.40
2022-10-15T12:33:04.608Z,55.40
2022-10-15T12:35:35.029Z,55.40
2022-10-15T12:38:40.315Z,55.40
2022-10-15T12:41:10.995Z,55.40
2022-10-15T12:43:45.008Z,55.40
2022-10-15T12:46:11.719Z,55.50
2022-10-15T12:48:45.658Z,55.50
2022-10-15T12:51:24.322Z,55.50
2022-10-15T12:53:51.609Z,55.40
2022-10-15T12:56:18.074Z,55.30
2022-10-15T12:58:51.713Z,55.20
2022-10-15T13:01:18.222Z,55.20
2022-10-15T13:03:50.606Z,55.30
2022-10-15T13:06:20.387Z,55.30
2022-10-15T13:08:50.995Z,55.20
2022-10-15T13:11:29.488Z,55.10
2022-10-15T13:14:03.242Z,55.00
2022-10-15T13:16:29.913Z,55.20
2022-10-15T13:18:57.300Z,55.20
2022-10-15T13:21:50.505Z,55.20
2022-10-15T13:24:18.813Z,55.20
2022-10-15T13:26:45.353Z,55.20
2022-10-15T13:29:15.594Z,55.10
2022-10-15T13:31:44.901Z,55.10
2022-10-15T13:34:23.903Z,55.20
2022-10-15T13:36:50.508Z,55.10
2022-10-15T13:39:25.825Z,55.20
2022-10-15T13:42:07.302Z,55.20
2022-10-15T13:44:33.894Z,55.20
2022-10-15T13:47:00.423Z,55.20
2022-10-15T13:49:28.915Z,55.10
2022-10-15T13:51:55.680Z,55.00
2022-10-15T13:54:28.163Z,55.60
2022-10-15T13:56:57.708Z,54.90
2022-10-15T13:59:24.463Z,55.00
2022-10-15T14:02:00.660Z,55.10
2022-10-15T14:04:31.570Z,55.30
2022-10-15T14:07:03.211Z,55.20
2022-10-15T14:09:31.266Z,55.20
2022-10-15T14:12:02.256Z,55.60
2022-10-15T14:14:36.953Z,55.00
2022-10-15T14:17:05.733Z,55.20
2022-10-15T14:19:32.464Z,55.20
2022-10-15T14:21:59.821Z,55.20
2022-10-15T14:24:36.042Z,55.20
2022-10-15T14:27:07.609Z,55.30
2022-10-15T14:29:37.366Z,55.20
2022-10-15T14:32:04.466Z,55.20
2022-10-15T14:34:34.698Z,55.10
2022-10-15T14:37:20.460Z,55.10
2022-10-15T14:39:47.920Z,55.00
2022-10-15T14:42:26.668Z,55.00
2022-10-15T14:44:53.229Z,54.90
2022-10-15T14:47:22.576Z,55.10
2022-10-15T14:49:50.796Z,55.00
2022-10-15T14:52:19.670Z,55.00
2022-10-15T14:55:33.452Z,55.00
2022-10-15T14:58:10.676Z,55.00
2022-10-15T15:00:44.596Z,54.90
2022-10-15T15:03:14.512Z,55.00
2022-10-15T15:05:48.788Z,55.00
2022-10-15T15:08:15.566Z,55.00
2022-10-15T15:10:42.456Z,54.90
2022-10-15T15:13:14.163Z,54.90
2022-10-15T15:15:41.952Z,54.90
2022-10-15T15:18:11.390Z,54.90
2022-10-15T15:20:38.410Z,54.90
2022-10-15T15:23:04.962Z,54.90
2022-10-15T15:25:33.999Z,54.90
2022-10-15T15:28:00.978Z,54.90
2022-10-15T15:30:28.942Z,54.90
2022-10-15T15:32:55.544Z,54.90
2022-10-15T15:35:22.087Z,54.90
2022-10-15T15:37:48.652Z,54.90
2022-10-15T15:40:15.293Z,55.00
2022-10-15T15:42:41.999Z,55.00
2022-10-15T15:45:14.993Z,54.90
2022-10-15T15:47:41.530Z,55.00
2022-10-15T15:50:08.407Z,55.00
2022-10-15T15:52:36.683Z,55.00
2022-10-15T15:55:05.652Z,54.90
2022-10-15T15:57:32.310Z,55.00
2022-10-15T15:59:58.866Z,54.90
2022-10-15T16:02:25.424Z,54.90
2022-10-15T16:04:51.994Z,54.90
2022-10-15T16:07:19.593Z,54.90
2022-10-15T16:09:46.312Z,55.00
2022-10-15T16:12:13.670Z,54.90
2022-10-15T16:14:40.227Z,54.90
2022-10-15T16:17:06.760Z,55.00
2022-10-15T16:19:33.305Z,55.00
2022-10-15T16:21:59.925Z,55.00
2022-10-15T16:24:26.493Z,55.10
2022-10-15T16:26:53.055Z,55.10
2022-10-15T16:29:19.774Z,55.10
2022-10-15T16:31:46.324Z,55.20
2022-10-15T16:34:12.867Z,55.20
2022-10-15T16:36:40.510Z,55.20
2022-10-15T16:39:07.049Z,55.20
2022-10-15T16:41:33.635Z,55.20
2022-10-15T16:44:00.184Z,55.20
2022-10-15T16:46:26.731Z,55.10
2022-10-15T16:48:54.206Z,55.00
2022-10-15T16:51:20.976Z,55.00
2022-10-15T16:53:47.813Z,55.10
2022-10-15T16:56:22.973Z,55.00
2022-10-15T16:58:49.788Z,55.00
2022-10-15T17:01:18.613Z,55.10
2022-10-15T17:03:45.470Z,55.70
2022-10-15T17:06:17.415Z,55.00
2022-10-15T17:08:51.377Z,55.10
2022-10-15T17:11:19.980Z,55.00
2022-10-15T17:13:46.699Z,55.10
2022-10-15T17:16:17.207Z,55.00
2022-10-15T17:18:43.920Z,55.10
2022-10-15T17:21:11.654Z,55.20
2022-10-15T17:23:38.406Z,55.20
2022-10-15T17:26:10.549Z,55.20
2022-10-15T17:28:37.111Z,55.30
2022-10-15T17:31:07.831Z,55.40
2022-10-15T17:33:35.318Z,55.40
2022-10-15T17:36:06.813Z,55.30
2022-10-15T17:38:33.365Z,55.30
2022-10-15T17:41:00.018Z,55.40
2022-10-15T17:43:26.889Z,55.40
2022-10-15T17:46:04.259Z,55.40
2022-10-15T17:48:31.168Z,55.40
2022-10-15T17:50:59.770Z,55.40
2022-10-15T17:53:26.587Z,55.40
2022-10-15T17:55:53.173Z,55.20
2022-10-15T17:58:20.137Z,55.20
2022-10-15T18:00:56.495Z,55.20
2022-10-15T18:03:23.761Z,55.20
2022-10-15T18:05:50.451Z,55.20
2022-10-15T18:08:17.344Z,55.20
2022-10-15T18:10:45.693Z,55.20
2022-10-15T18:13:12.793Z,55.10
2022-10-15T18:15:45.866Z,55.10
2022-10-15T18:18:12.825Z,55.10
2022-10-15T18:20:40.794Z,55.20
2022-10-15T18:23:07.324Z,55.30
2022-10-15T18:25:33.944Z,55.30
2022-10-15T18:28:00.757Z,55.40
2022-10-15T18:30:27.334Z,55.30
2022-10-15T18:32:55.856Z,55.30
2022-10-15T18:35:24.618Z,55.30
2022-10-15T18:37:51.161Z,55.90
2022-10-15T18:40:17.803Z,55.30
2022-10-15T18:42:47.678Z,55.30
2022-10-15T18:45:14.563Z,55.30
2022-10-15T18:47:41.110Z,55.30
2022-10-15T18:50:08.267Z,55.20
2022-10-15T18:52:39.880Z,55.20
2022-10-15T18:55:07.814Z,55.20
2022-10-15T18:57:34.760Z,55.20
2022-10-15T19:00:01.381Z,55.10
2022-10-15T19:02:28.163Z,55.10
2022-10-15T19:04:54.860Z,55.10
2022-10-15T19:07:21.406Z,55.10
2022-10-15T19:09:47.945Z,55.10
2022-10-15T19:12:14.511Z,55.10
2022-10-15T19:14:41.081Z,55.70
2022-10-15T19:17:07.643Z,55.10
2022-10-15T19:19:34.213Z,55.10
2022-10-15T19:22:00.788Z,55.00
2022-10-15T19:24:27.446Z,55.10
2022-10-15T19:26:54.068Z,55.20
2022-10-15T19:29:20.678Z,55.30
2022-10-15T19:31:47.540Z,55.20
2022-10-15T19:34:14.339Z,55.30
2022-10-15T19:36:46.629Z,55.20
2022-10-15T19:39:15.058Z,55.30
2022-10-15T19:41:42.237Z,55.30
2022-10-15T19:44:09.296Z,55.30
2022-10-15T19:46:36.450Z,55.30
2022-10-15T19:49:03.175Z,55.30
2022-10-15T19:51:30.899Z,55.30
2022-10-15T19:53:59.887Z,55.30
2022-10-15T19:56:27.234Z,55.30
2022-10-15T19:58:57.912Z,55.10
2022-10-15T20:01:25.156Z,55.10
2022-10-15T20:03:51.784Z,55.10
2022-10-15T20:06:18.500Z,55.20
2022-10-15T20:08:45.148Z,55.10
2022-10-15T20:11:12.085Z,55.20
2022-10-15T20:13:38.745Z,55.10
2022-10-15T20:16:07.262Z,55.10
2022-10-15T20:18:34.152Z,55.00
2022-10-15T20:21:00.724Z,55.10
2022-10-15T20:23:28.460Z,55.10
2022-10-15T20:25:55.049Z,55.10
2022-10-15T20:28:21.601Z,55.10
2022-10-15T20:30:49.722Z,55.10
2022-10-15T20:33:16.335Z,55.20
2022-10-15T20:35:42.924Z,55.20
2022-10-15T20:38:09.593Z,55.30
2022-10-15T20:40:39.255Z,55.30
2022-10-15T20:43:05.791Z,55.30
2022-10-15T20:45:34.630Z,55.30
2022-10-15T20:48:01.653Z,55.30
2022-10-15T20:50:30.335Z,55.30
2022-10-15T20:52:56.884Z,55.30
2022-10-15T20:55:23.820Z,55.30
2022-10-15T20:57:50.381Z,55.30
2022-10-15T21:00:16.942Z,55.30
2022-10-15T21:02:43.520Z,55.30
2022-10-15T21:05:10.080Z,55.40
2022-10-15T21:07:36.642Z,55.40
2022-10-15T21:10:03.272Z,55.40
2022-10-15T21:12:29.841Z,55.40
2022-10-15T21:14:56.544Z,55.40
2022-10-15T21:17:23.356Z,55.40
2022-10-15T21:19:52.681Z,55.40
2022-10-15T21:22:19.782Z,55.40
2022-10-15T21:24:46.331Z,55.30
2022-10-15T21:27:12.903Z,55.30
2022-10-15T21:29:39.457Z,55.30
2022-10-15T21:32:06.036Z,55.30
2022-10-15T21:34:32.629Z,55.30
2022-10-15T21:36:59.221Z,55.30
2022-10-15T21:39:25.762Z,55.30
2022-10-15T21:41:52.320Z,55.30
2022-10-15T21:44:18.853Z,55.30
2022-10-15T21:46:45.443Z,55.30
2022-10-15T21:49:13.792Z,55.30
2022-10-15T21:51:40.405Z,55.30
2022-10-15T21:54:07.317Z,55.30
2022-10-15T21:56:34.008Z,55.30
2022-10-15T21:59:00.810Z,55.30
2022-10-15T22:01:31.934Z,55.30
2022-10-15T22:04:05.494Z,55.30
2022-10-15T22:06:32.421Z,55.30
2022-10-15T22:08:59.132Z,55.40
2022-10-15T22:11:27.485Z,55.20
2022-10-15T22:13:56.389Z,55.30
2022-10-15T22:16:23.554Z,55.30
2022-10-15T22:18:50.109Z,55.20
2022-10-15T22:21:18.999Z,55.20
2022-10-15T22:23:51.014Z,55.10
2022-10-15T22:26:18.349Z,55.10
2022-10-15T22:28:45.209Z,55.10
2022-10-15T22:31:13.053Z,55.10
2022-10-15T22:33:40.774Z,55.00
2022-10-15T22:36:13.209Z,55.10
2022-10-15T22:38:40.866Z,55.10
2022-10-15T22:41:07.645Z,55.10
2022-10-15T22:43:34.195Z,55.10
2022-10-15T22:46:00.818Z,55.20
2022-10-15T22:48:27.451Z,55.20
2022-10-15T22:50:57.808Z,55.20
2022-10-15T22:53:24.409Z,55.20
2022-10-15T22:56:00.801Z,55.30
2022-10-15T22:58:27.552Z,55.30
2022-10-15T23:00:54.150Z,55.30
2022-10-15T23:03:20.798Z,55.30
2022-10-15T23:05:53.950Z,55.20
2022-10-15T23:08:21.011Z,55.30
2022-10-15T23:10:47.724Z,55.30
2022-10-15T23:13:14.437Z,55.90
2022-10-15T23:15:40.996Z,55.20
2022-10-15T23:18:07.533Z,55.20
2022-10-15T23:20:40.031Z,55.10
2022-10-15T23:23:06.585Z,55.20
2022-10-15T23:25:39.051Z,55.10
2022-10-15T23:28:05.668Z,55.10
2022-10-15T23:30:32.251Z,55.10
2022-10-15T23:33:00.842Z,55.10
2022-10-15T23:35:27.433Z,55.10
2022-10-15T23:37:54.051Z,55.10
2022-10-15T23:40:20.606Z,55.00
2022-10-15T23:42:47.286Z,55.10
2022-10-15T23:45:13.891Z,55.00
2022-10-15T23:47:40.449Z,55.00
2022-10-15T23:50:07.331Z,55.10
2022-10-15T23:52:33.896Z,55.10
2022-10-15T23:55:00.457Z,55.10
2022-10-15T23:57:27.485Z,55.10
2022-10-15T23:59:54.238Z,55.10
